Time;durP1;ratioP1;P1;durP2;ratioP2;P2;SDS_P1;SDS_P2;PMS_P1;PMS_P2;Temp;Humidity;BMP_temperature;BMP_pressure;BME280_temperature;BME280_humidity;BME280_pressure;Samples;Min_cycle;Max_cycle;Signal;HPM_P1;HPM_P2
2022/03/08 00:00:46;;;;;;;40.80;22.00;;;;;;;-2.50;71.02;101174.00;107333;1250;72652;-70
2022/03/08 00:03:15;;;;;;;48.00;25.00;;;;;;;-2.46;70.38;101173.95;107270;1250;59570;-70
2022/03/08 00:05:45;;;;;;;44.00;23.80;;;;;;;-2.43;70.29;101171.54;107451;1249;61288;-70
2022/03/08 00:08:15;;;;;;;44.80;24.20;;;;;;;-2.39;70.04;101167.06;107528;1249;74909;-71
2022/03/08 00:10:44;;;;;;;45.30;24.00;;;;;;;-2.36;69.95;101165.32;107481;1250;72770;-72
2022/03/08 00:13:13;;;;;;;36.90;21.20;;;;;;;-2.35;70.53;101164.80;107234;1250;70586;-69
2022/03/08 00:15:42;;;;;;;44.60;25.00;;;;;;;-2.33;70.82;101167.33;107260;1250;71545;-69
2022/03/08 00:18:17;;;;;;;40.20;23.20;;;;;;;-2.32;71.27;101167.14;107408;1250;59575;-71
2022/03/08 00:20:46;;;;;;;37.80;21.20;;;;;;;-2.24;71.25;101166.53;107395;1249;61316;-71
2022/03/08 00:23:15;;;;;;;45.30;23.00;;;;;;;-2.19;71.02;101161.02;107421;1250;75022;-73
2022/03/08 00:25:44;;;;;;;44.80;23.40;;;;;;;-2.21;71.64;101157.96;107458;1250;71059;-70
2022/03/08 00:28:13;;;;;;;41.40;22.30;;;;;;;-2.20;71.02;101158.98;107420;1249;67699;-69
2022/03/08 00:30:42;;;;;;;40.90;19.60;;;;;;;-2.20;71.62;101158.14;107209;1250;73505;-69
2022/03/08 00:33:12;;;;;;;41.50;21.60;;;;;;;-2.17;71.28;101155.02;107417;1249;61263;-70
2022/03/08 00:35:41;;;;;;;45.60;24.20;;;;;;;-2.14;71.21;101152.92;107241;1250;61252;-70
2022/03/08 00:38:10;;;;;;;38.00;20.00;;;;;;;-2.11;71.73;101155.28;107464;1249;74947;-68
2022/03/08 00:40:39;;;;;;;44.70;24.50;;;;;;;-2.04;72.57;101153.13;107217;1250;72196;-69
2022/03/08 00:43:08;;;;;;;46.00;24.10;;;;;;;-1.95;72.03;101151.64;107448;1250;69088;-69
2022/03/08 00:45:38;;;;;;;44.40;23.50;;;;;;;-1.95;72.11;101147.54;107325;1250;72947;-69
2022/03/08 00:48:07;;;;;;;45.20;23.10;;;;;;;-1.92;71.98;101145.81;107455;1249;58918;-69
2022/03/08 00:50:38;;;;;;;47.10;24.40;;;;;;;-1.93;71.81;101139.85;107483;1250;59640;-68
2022/03/08 00:53:07;;;;;;;43.10;24.20;;;;;;;-1.97;71.67;101143.65;107421;1250;74459;-69
2022/03/08 00:55:36;;;;;;;41.10;22.00;;;;;;;-1.99;72.13;101141.46;107462;1250;71035;-69
2022/03/08 00:58:07;;;;;;;44.10;25.40;;;;;;;-1.99;72.30;101142.65;107477;1248;68536;-71
2022/03/08 01:00:38;;;;;;;34.00;16.90;;;;;;;-2.02;72.73;101144.91;107308;1250;72005;-71
2022/03/08 01:03:08;;;;;;;46.80;25.20;;;;;;;-2.02;72.98;101138.94;107521;1249;60348;-72
2022/03/08 01:05:38;;;;;;;46.80;25.40;;;;;;;-1.96;72.87;101135.44;107338;1250;59435;-70
2022/03/08 01:08:08;;;;;;;45.50;23.10;;;;;;;-1.91;73.12;101136.05;107286;1250;75644;-70
2022/03/08 01:10:37;;;;;;;38.40;21.20;;;;;;;-1.88;73.31;101132.25;107258;1250;73023;-70
2022/03/08 01:13:06;;;;;;;43.20;24.70;;;;;;;-1.90;73.08;101129.39;107311;1248;70341;-71
2022/03/08 01:15:35;;;;;;;48.30;25.80;;;;;;;-1.91;72.75;101128.55;107345;1250;71625;-70
2022/03/08 01:18:04;;;;;;;36.90;21.30;;;;;;;-1.90;73.39;101124.60;107298;1250;59676;-69
2022/03/08 01:20:35;;;;;;;37.30;20.30;;;;;;;-1.85;73.54;101120.80;107076;1250;59704;-69
2022/03/08 01:23:04;;;;;;;48.30;23.30;;;;;;;-1.84;73.37;101121.11;107303;1250;73546;-69
2022/03/08 01:25:34;;;;;;;47.00;24.90;;;;;;;-1.82;73.47;101115.61;107323;1250;71327;-71
2022/03/08 01:28:04;;;;;;;37.70;20.20;;;;;;;-1.82;73.76;101115.95;107118;1250;70570;-67
2022/03/08 01:30:33;;;;;;;35.60;19.30;;;;;;;-1.82;73.60;101116.13;107114;1250;74344;-68
2022/03/08 01:33:03;;;;;;;38.10;20.40;;;;;;;-1.84;73.63;101116.67;107158;1250;59580;-67
2022/03/08 01:35:32;;;;;;;43.90;23.80;;;;;;;-1.83;73.58;101120.08;107238;1250;60563;-70
2022/03/08 01:38:02;;;;;;;40.10;21.90;;;;;;;-1.82;73.70;101120.40;107333;1250;75963;-68
2022/03/08 01:40:31;;;;;;;47.90;24.20;;;;;;;-1.80;74.33;101120.02;107172;1249;71354;-70
2022/03/08 01:43:02;;;;;;;34.70;19.30;;;;;;;-1.77;74.40;101122.88;107113;1250;71594;-70
2022/03/08 01:45:32;;;;;;;38.00;23.00;;;;;;;-1.78;74.62;101122.22;107055;1249;72774;-71
2022/03/08 01:48:02;;;;;;;44.30;24.60;;;;;;;-1.77;73.67;101124.94;107281;1249;59569;-71
2022/03/08 01:50:31;;;;;;;43.80;23.60;;;;;;;-1.78;75.29;101123.76;107181;1250;60222;-70
2022/03/08 01:53:01;;;;;;;41.20;21.20;;;;;;;-1.76;74.32;101119.28;107452;1249;73722;-71
2022/03/08 01:55:30;;;;;;;36.20;18.60;;;;;;;-1.73;73.50;101116.84;107322;1250;71272;-71
2022/03/08 01:57:59;;;;;;;44.50;24.70;;;;;;;-1.74;73.71;101117.36;107464;1249;68498;-73
2022/03/08 02:00:31;;;;;;;41.30;23.60;;;;;;;-1.77;74.63;101113.66;107264;1250;72899;-71
2022/03/08 02:03:01;;;;;;;;;;;;;;;-1.72;73.82;101112.90;107462;1250;59574;-71
2022/03/08 02:05:31;;;;;;;36.80;20.10;;;;;;;-1.71;73.70;101114.24;107125;1250;62707;-69
2022/03/08 02:08:00;;;;;;;38.30;22.00;;;;;;;-1.71;74.30;101111.86;107989;1250;75394;-70
2022/03/08 02:10:29;;;;;;;36.70;20.70;;;;;;;-1.66;74.00;101116.90;107346;1250;69937;-71
2022/03/08 02:12:58;;;;;;;30.50;15.40;;;;;;;-1.62;74.29;101115.13;107474;1250;69146;-70
2022/03/08 02:15:29;;;;;;;39.10;19.20;;;;;;;-1.56;74.48;101114.19;107653;1250;73970;-70
2022/03/08 02:18:00;;;;;;;38.90;21.60;;;;;;;-1.51;74.31;101113.59;107519;1250;60200;-69
2022/03/08 02:20:31;;;;;;;35.20;21.30;;;;;;;-1.45;74.54;101117.42;107377;1251;58900;-70
2022/03/08 02:23:00;;;;;;;35.60;20.50;;;;;;;-1.50;74.87;101113.56;107534;1250;75349;-71
2022/03/08 02:25:29;;;;;;;33.30;19.70;;;;;;;-1.47;74.18;101114.55;107454;1250;71763;-74
2022/03/08 02:27:58;;;;;;;36.40;21.40;;;;;;;-1.49;74.15;101113.23;107147;1252;70075;-72
2022/03/08 02:30:28;;;;;;;14.80;8.50;;;;;;;-1.46;74.07;101117.42;107262;1251;72004;-70
2022/03/08 02:32:57;;;;;;;36.60;19.10;;;;;;;-1.42;74.36;101115.66;107459;1250;59753;-69
2022/03/08 02:35:30;;;;;;;32.70;18.10;;;;;;;-1.43;74.41;101118.41;107437;1251;60337;-73
2022/03/08 02:38:03;;;;;;;33.40;18.30;;;;;;;-1.44;74.55;101123.20;107378;1250;73247;-71
2022/03/08 02:40:37;;;;;;;33.80;19.90;;;;;;;-1.45;74.42;101122.89;107241;1250;70368;-67
2022/03/08 02:43:08;;;;;;;22.50;11.80;;;;;;;-1.49;74.79;101122.28;107373;1250;70609;-70
2022/03/08 02:45:38;;;;;;;35.20;19.60;;;;;;;-1.46;74.83;101123.75;107403;1250;74247;-71
2022/03/08 02:48:08;;;;;;;25.60;13.40;;;;;;;-1.44;74.61;101123.03;107282;1250;62153;-70
2022/03/08 02:50:37;;;;;;;35.90;21.00;;;;;;;-1.43;74.50;101124.91;107321;1250;61254;-68
2022/03/08 02:53:06;;;;;;;32.60;19.40;;;;;;;-1.42;74.22;101119.09;107305;1250;74513;-68
2022/03/08 02:55:36;;;;;;;33.20;18.30;;;;;;;-1.52;75.20;101112.42;107221;1251;71427;-68
2022/03/08 02:58:06;;;;;;;36.50;20.00;;;;;;;-1.47;74.25;101121.72;107197;1250;70928;-69
2022/03/08 03:00:35;;;;;;;28.80;15.60;;;;;;;-1.49;74.22;101122.28;107360;1250;72770;-69
2022/03/08 03:03:06;;;;;;;35.10;19.70;;;;;;;-1.50;74.11;101119.05;107309;1250;61267;-70
2022/03/08 03:05:37;;;;;;;34.10;19.40;;;;;;;-1.53;74.43;101122.67;107234;1250;62063;-70
2022/03/08 03:08:07;;;;;;;33.10;17.30;;;;;;;-1.53;74.61;101124.05;107351;1250;73317;-70
2022/03/08 03:10:36;;;;;;;30.80;15.30;;;;;;;-1.50;74.44;101124.52;107220;1251;72197;-68
2022/03/08 03:13:05;;;;;;;27.10;15.10;;;;;;;-1.57;74.57;101125.98;107247;1251;70264;-68
2022/03/08 03:15:34;;;;;;;39.50;20.20;;;;;;;-1.67;75.04;101123.74;107320;1250;72609;-69
2022/03/08 03:18:10;;;;;;;40.50;20.70;;;;;;;-1.71;75.19;101122.79;107300;1251;60890;-68
2022/03/08 03:20:38;;;;;;;34.40;19.80;;;;;;;-1.70;75.84;101122.77;107344;1250;60443;-69
2022/03/08 03:23:08;;;;;;;34.40;19.70;;;;;;;-1.64;75.20;101120.13;107337;1250;75484;-69
2022/03/08 03:25:37;;;;;;;30.80;18.20;;;;;;;-1.62;75.28;101122.30;107239;1250;73131;-70
2022/03/08 03:28:06;;;;;;;26.60;15.80;;;;;;;-1.65;75.06;101123.89;107200;1248;71465;-69
2022/03/08 03:30:35;;;;;;;36.60;19.60;;;;;;;-1.71;75.36;101127.74;107306;1250;73948;-70
2022/03/08 03:33:04;;;;;;;31.50;16.90;;;;;;;-1.72;75.48;101125.04;107301;1250;60545;-69
2022/03/08 03:35:33;;;;;;;26.70;14.90;;;;;;;-1.71;75.57;101125.67;107356;1250;59731;-70
2022/03/08 03:38:03;;;;;;;27.30;14.10;;;;;;;-1.74;75.29;101125.05;107355;1251;73635;-70
2022/03/08 03:40:32;;;;;;;18.60;10.40;;;;;;;-1.77;75.47;101124.08;107294;1251;72174;-70
2022/03/08 03:43:00;;;;;;;25.90;13.10;;;;;;;-1.76;75.70;101121.33;107220;1251;71027;-70
2022/03/08 03:45:29;;;;;;;24.00;12.50;;;;;;;-1.77;75.77;101121.01;107299;1250;74623;-69
2022/03/08 03:47:58;;;;;;;24.90;14.80;;;;;;;-1.80;76.11;101122.07;107231;1252;59663;-70
2022/03/08 03:50:27;;;;;;;20.00;10.90;;;;;;;-1.87;75.94;101118.58;107332;1251;59215;-70
2022/03/08 03:52:56;;;;;;;30.50;15.10;;;;;;;-1.87;76.04;101120.64;107300;1251;74884;-69
2022/03/08 03:55:26;;;;;;;33.50;18.00;;;;;;;-1.89;75.98;101123.73;107322;1250;73014;-70
2022/03/08 03:57:55;;;;;;;37.60;20.30;;;;;;;-1.88;75.76;101123.03;107369;1250;67366;-70
2022/03/08 04:00:24;;;;;;;34.40;18.60;;;;;;;-1.88;76.44;101127.48;107386;1250;73235;-70
2022/03/08 04:02:53;;;;;;;25.70;14.30;;;;;;;-1.83;75.65;101128.42;107283;1250;58859;-69
2022/03/08 04:05:22;;;;;;;30.80;15.30;;;;;;;-1.80;75.64;101126.53;107395;1250;61284;-68
2022/03/08 04:07:52;;;;;;;33.50;16.00;;;;;;;-1.80;75.85;101124.98;107278;1250;76006;-69
2022/03/08 04:10:21;;;;;;;37.30;19.30;;;;;;;-1.80;75.86;101118.16;107304;1249;71895;-69
2022/03/08 04:12:50;;;;;;;32.80;18.20;;;;;;;-1.81;75.81;101119.02;107442;1250;70827;-69
2022/03/08 04:15:19;;;;;;;34.50;18.10;;;;;;;-1.79;75.98;101116.59;107221;1250;73297;-70
2022/03/08 04:17:48;;;;;;;28.80;15.90;;;;;;;-1.74;76.05;101107.98;107464;1250;59595;-70
2022/03/08 04:20:17;;;;;;;33.40;18.20;;;;;;;-1.69;75.30;101113.03;107200;1248;62000;-70
2022/03/08 04:22:45;;;;;;;32.80;17.60;;;;;;;-1.69;75.28;101111.32;107145;1250;73977;-70
2022/03/08 04:25:14;;;;;;;30.30;17.30;;;;;;;-1.66;75.04;101111.27;107407;1250;72198;-70
2022/03/08 04:27:43;;;;;;;21.80;11.60;;;;;;;-1.64;74.70;101114.32;107171;1250;72353;-71
2022/03/08 04:30:12;;;;;;;32.60;18.40;;;;;;;-1.62;74.75;101112.73;107403;1250;73390;-71
2022/03/08 04:32:41;;;;;;;34.30;17.80;;;;;;;-1.61;74.68;101110.84;107500;1249;59949;-71
2022/03/08 04:35:10;;;;;;;30.90;17.10;;;;;;;-1.54;74.63;101112.10;107305;1250;59438;-72
2022/03/08 04:37:39;;;;;;;28.10;17.00;;;;;;;-1.53;74.52;101109.52;107130;1250;71957;-70
2022/03/08 04:40:09;;;;;;;31.90;18.70;;;;;;;-1.53;74.58;101109.36;107213;1250;70884;-70
2022/03/08 04:42:41;;;;;;;9.40;5.60;;;;;;;-1.55;74.51;101107.16;107869;1250;70067;-70
2022/03/08 04:45:12;;;;;;;35.70;17.60;;;;;;;-1.50;74.41;101108.63;107175;1250;73929;-70
2022/03/08 04:47:41;;;;;;;28.70;15.50;;;;;;;-1.55;74.48;101103.06;107697;1250;62896;-72
2022/03/08 04:50:16;;;;;;;32.30;17.60;;;;;;;-1.49;74.65;101112.20;107339;1250;60844;-69
2022/03/08 04:52:49;;;;;;;31.90;17.50;;;;;;;-1.50;74.90;101111.36;107229;1251;72949;-71
2022/03/08 04:55:19;;;;;;;32.00;18.80;;;;;;;-1.50;74.86;101112.21;107231;1251;72798;-70
2022/03/08 04:57:51;;;;;;;30.40;18.20;;;;;;;-1.48;74.39;101115.76;107017;1251;67901;-72
2022/03/08 05:00:20;;;;;;;31.50;17.70;;;;;;;-1.53;74.40;101116.36;107021;1250;74281;-71
2022/03/08 05:02:49;;;;;;;34.20;20.00;;;;;;;-1.53;74.23;101113.11;107165;1248;59642;-75
2022/03/08 05:05:18;;;;;;;32.80;17.50;;;;;;;-1.52;74.73;101112.59;107240;1250;59547;-74
2022/03/08 05:07:47;;;;;;;35.70;18.70;;;;;;;-1.50;74.69;101112.05;107152;1250;71709;-72
2022/03/08 05:10:16;;;;;;;33.40;19.10;;;;;;;-1.43;74.59;101111.92;107238;1250;70654;-79
2022/03/08 05:12:46;;;;;;;33.20;16.80;;;;;;;-1.43;74.82;101106.97;107333;1250;69653;-76
2022/03/08 05:15:15;;;;;;;33.20;18.80;;;;;;;-1.40;74.39;101111.54;107476;1249;73868;-76
2022/03/08 05:17:44;;;;;;;34.80;19.40;;;;;;;-1.39;74.48;101112.89;107168;1253;60129;-76
2022/03/08 05:20:13;;;;;;;34.70;19.40;;;;;;;-1.31;74.14;101108.66;107367;1250;61846;-74
2022/03/08 05:22:42;;;;;;;36.80;20.00;;;;;;;-1.30;73.96;101109.66;107244;1253;72157;-72
2022/03/08 05:25:11;;;;;;;36.50;19.10;;;;;;;-1.25;73.72;101106.48;107200;1253;69392;-74
2022/03/08 05:27:40;;;;;;;37.40;19.80;;;;;;;-1.18;74.20;101107.22;107509;1253;67251;-77
2022/03/08 05:30:10;;;;;;;31.80;18.00;;;;;;;-1.12;74.16;101106.10;107495;1253;71179;-74
2022/03/08 05:32:40;;;;;;;33.10;19.40;;;;;;;-1.07;74.19;101105.83;107493;1253;59919;-78
2022/03/08 05:35:11;;;;;;;30.90;19.00;;;;;;;-1.05;73.82;101105.61;107482;1253;59738;-76
2022/03/08 05:37:39;;;;;;;34.40;17.20;;;;;;;-1.03;73.21;101104.05;107387;1250;74759;-78
2022/03/08 05:40:09;;;;;;;34.30;19.30;;;;;;;-1.06;73.05;101105.98;107293;1251;69921;-75
2022/03/08 05:42:38;;;;;;;25.90;13.70;;;;;;;-1.04;72.77;101106.64;107415;1251;70135;-75
2022/03/08 05:45:09;;;;;;;24.00;12.60;;;;;;;-1.02;72.93;101109.33;107458;1250;72037;-75
2022/03/08 05:47:40;;;;;;;25.50;13.80;;;;;;;-1.00;72.91;101109.48;107826;1250;60468;-75
2022/03/08 05:50:11;;;;;;;32.80;19.50;;;;;;;-1.01;73.12;101113.60;107543;1250;61716;-76
2022/03/08 05:52:40;;;;;;;32.10;17.90;;;;;;;-1.01;72.81;101110.53;107390;1253;74260;-78
2022/03/08 05:55:10;;;;;;;36.30;19.30;;;;;;;-1.00;72.94;101112.20;107431;1250;69436;-76
2022/03/08 05:57:38;;;;;;;30.60;16.30;;;;;;;-0.94;72.61;101113.97;107421;1250;70612;-75
2022/03/08 06:00:09;;;;;;;34.00;19.00;;;;;;;-0.91;72.65;101115.27;107378;1253;71877;-76
2022/03/08 06:02:42;;;;;;;40.10;19.70;;;;;;;-0.87;72.82;101115.55;107373;1251;61012;-75
2022/03/08 06:05:11;;;;;;;25.30;13.30;;;;;;;-0.76;72.74;101113.27;107392;1253;61796;-75
2022/03/08 06:07:40;;;;;;;36.40;19.40;;;;;;;-0.74;71.97;101120.79;107528;1250;74109;-75
2022/03/08 06:10:10;;;;;;;31.80;18.10;;;;;;;-0.73;72.11;101123.33;107320;1251;73731;-77
2022/03/08 06:12:38;;;;;;;33.50;18.70;;;;;;;-0.69;71.90;101124.80;107288;1251;69723;-75
2022/03/08 06:15:09;;;;;;;38.20;20.30;;;;;;;-0.68;72.19;101125.11;107333;1251;71202;-76
2022/03/08 06:17:38;;;;;;;31.90;17.60;;;;;;;-0.59;72.28;101131.27;107431;1251;62110;-75
2022/03/08 06:20:09;;;;;;;29.00;16.40;;;;;;;-0.48;71.78;101130.19;107510;1251;59739;-75
2022/03/08 06:22:38;;;;;;;31.80;16.70;;;;;;;-0.44;71.71;101135.77;107207;1252;73819;-76
2022/03/08 06:25:09;;;;;;;31.40;16.70;;;;;;;-0.35;71.44;101135.75;107363;1251;70784;-76
2022/03/08 06:27:38;;;;;;;30.90;18.30;;;;;;;-0.33;71.32;101136.73;107435;1251;68753;-73
2022/03/08 06:30:09;;;;;;;30.80;17.40;;;;;;;-0.27;70.87;101132.85;107334;1250;72801;-75
2022/03/08 06:32:38;;;;;;;33.30;16.80;;;;;;;-0.21;71.16;101135.29;107201;1253;59641;-75
2022/03/08 06:35:08;;;;;;;23.20;14.40;;;;;;;-0.21;71.06;101134.26;107397;1250;59935;-76
2022/03/08 06:37:37;;;;;;;35.50;19.10;;;;;;;-0.10;70.97;101138.31;107413;1250;72080;-76
2022/03/08 06:40:07;;;;;;;27.50;17.10;;;;;;;-0.11;71.78;101138.84;107378;1251;72263;-76
2022/03/08 06:42:36;;;;;;;26.00;14.20;;;;;;;-0.10;72.09;101140.89;107396;1251;69275;-76
2022/03/08 06:45:07;;;;;;;26.60;14.70;;;;;;;-0.16;73.16;101147.70;107450;1250;72205;-76
2022/03/08 06:47:38;;;;;;;32.20;17.20;;;;;;;-0.45;75.84;101147.93;107392;1253;61496;-76
2022/03/08 06:50:09;;;;;;;31.00;19.10;;;;;;;-0.54;76.54;101146.90;107418;1250;59132;-75
2022/03/08 06:52:38;;;;;;;30.20;15.30;;;;;;;-0.55;76.51;101147.61;107392;1251;74492;-75
2022/03/08 06:55:08;;;;;;;35.70;21.10;;;;;;;-0.62;77.01;101144.86;107397;1252;71024;-74
2022/03/08 06:57:37;;;;;;;32.80;17.00;;;;;;;-0.59;76.66;101142.71;107391;1250;69944;-74
2022/03/08 07:00:08;;;;;;;41.60;22.60;;;;;;;-0.58;76.44;101148.19;107173;1252;72950;-74
2022/03/08 07:02:37;;;;;;;31.10;16.40;;;;;;;-0.54;76.33;101150.51;107414;1250;59613;-74
2022/03/08 07:05:08;;;;;;;37.60;20.20;;;;;;;-0.40;76.55;101148.70;107484;1251;58966;-74
2022/03/08 07:07:38;;;;;;;33.80;19.90;;;;;;;-0.32;76.46;101146.98;107528;1251;72544;-76
2022/03/08 07:10:08;;;;;;;25.00;14.70;;;;;;;-0.25;76.68;101147.34;106898;1253;70041;-76
2022/03/08 07:12:38;;;;;;;38.90;22.40;;;;;;;-0.06;75.75;101143.02;107259;1253;69748;-75
2022/03/08 07:15:09;;;;;;;27.80;15.80;;;;;;;-0.04;76.07;101138.52;107302;1253;73199;-75
2022/03/08 07:17:40;;;;;;;26.90;15.30;;;;;;;0.21;75.03;101142.77;107163;1254;60373;-74
2022/03/08 07:20:10;;;;;;;31.00;18.20;;;;;;;0.28;74.48;101142.42;107516;1251;58960;-74
2022/03/08 07:22:39;;;;;;;31.20;18.50;;;;;;;0.48;73.37;101140.24;107333;1251;71671;-73
2022/03/08 07:25:10;;;;;;;30.00;18.00;;;;;;;0.52;72.59;101140.48;107377;1250;70353;-73
2022/03/08 07:27:39;;;;;;;28.70;16.20;;;;;;;0.53;72.70;101136.88;106902;1251;566986;-74
2022/03/08 07:30:10;;;;;;;28.60;17.00;;;;;;;0.61;72.55;101135.82;107316;1251;71979;-75
2022/03/08 07:32:39;;;;;;;27.00;17.10;;;;;;;0.66;71.78;101139.29;107304;1250;61451;-76
2022/03/08 07:35:09;;;;;;;26.90;15.60;;;;;;;0.68;71.58;101137.55;107336;1250;61878;-73
2022/03/08 07:37:39;;;;;;;30.60;18.00;;;;;;;0.66;71.21;101140.33;107808;1253;72351;-73
2022/03/08 07:40:08;;;;;;;33.60;18.90;;;;;;;0.67;71.57;101138.08;107098;1253;72315;-74
2022/03/08 07:42:37;;;;;;;25.20;14.80;;;;;;;0.71;71.12;101140.37;107253;1251;68470;-74
2022/03/08 07:45:07;;;;;;;29.10;17.60;;;;;;;0.72;70.80;101139.67;107291;1253;72001;-74
2022/03/08 07:47:36;;;;;;;26.10;15.60;;;;;;;0.80;70.95;101137.41;107264;1251;60223;-75
2022/03/08 07:50:07;;;;;;;26.90;16.90;;;;;;;0.90;70.47;101140.77;107297;1251;59698;-75
2022/03/08 07:52:36;;;;;;;28.70;18.10;;;;;;;0.87;70.23;101133.45;107175;1251;74521;-74
2022/03/08 07:55:08;;;;;;;31.30;19.10;;;;;;;0.85;70.70;101136.94;107328;1253;70895;-75
2022/03/08 07:57:36;;;;;;;10.90;7.20;;;;;;;0.91;70.18;101136.45;107262;1251;70621;-73
2022/03/08 08:00:27;;;;;;;19.20;12.10;;;;;;;0.92;70.22;101130.06;107418;1250;74738;-75
2022/03/08 08:02:56;;;;;;;26.00;16.20;;;;;;;0.95;70.37;101129.48;107419;1250;60671;-75
2022/03/08 08:05:26;;;;;;;24.90;14.70;;;;;;;1.06;69.91;101127.31;107296;1250;59356;-77
2022/03/08 08:07:55;;;;;;;24.40;13.10;;;;;;;1.11;69.59;101126.48;107153;1251;75380;-74
2022/03/08 08:10:23;;;;;;;22.60;15.40;;;;;;;1.11;69.69;101125.46;107358;1251;72626;-73
2022/03/08 08:12:52;;;;;;;25.70;17.30;;;;;;;1.19;69.28;101128.52;107148;1251;69564;-74
2022/03/08 08:15:21;;;;;;;26.50;17.10;;;;;;;1.15;69.42;101129.48;107151;1251;72039;-73
2022/03/08 08:17:50;;;;;;;24.00;17.00;;;;;;;1.19;69.35;101130.05;107167;1251;59861;-75
2022/03/08 08:20:21;;;;;;;31.00;16.30;;;;;;;1.11;69.14;101129.23;107113;1251;59356;-74
2022/03/08 08:22:50;;;;;;;23.60;14.20;;;;;;;1.16;69.05;101128.95;107217;1251;74384;-73
2022/03/08 08:25:19;;;;;;;28.80;17.40;;;;;;;1.27;68.76;101125.55;107164;1250;70965;-72
2022/03/08 08:27:48;;;;;;;19.10;11.40;;;;;;;1.33;68.63;101125.88;106900;1254;68361;-75
2022/03/08 08:30:18;;;;;;;24.90;15.80;;;;;;;1.33;68.83;101122.10;107181;1251;73123;-74
2022/03/08 08:32:50;;;;;;;27.10;16.10;;;;;;;1.55;68.65;101123.21;107206;1250;62557;-73
2022/03/08 08:35:19;;;;;;;23.50;12.50;;;;;;;1.57;68.03;101123.17;107171;1251;59973;-73
2022/03/08 08:37:49;;;;;;;26.70;16.20;;;;;;;1.61;67.41;101119.96;106935;1252;74618;-74
2022/03/08 08:40:18;;;;;;;28.80;16.60;;;;;;;1.59;67.69;101118.66;107067;1251;73687;-74
2022/03/08 08:42:47;;;;;;;22.70;13.30;;;;;;;1.65;67.58;101116.23;107103;1253;70444;-74
2022/03/08 08:45:16;;;;;;;22.20;13.20;;;;;;;1.80;67.09;101118.71;107172;1251;72830;-74
2022/03/08 08:47:45;;;;;;;23.80;14.80;;;;;;;1.78;66.68;101114.84;107168;1251;60610;-74
2022/03/08 08:50:14;;;;;;;22.60;14.00;;;;;;;1.92;66.94;101114.94;107332;1250;59853;-72
2022/03/08 08:52:43;;;;;;;27.90;17.50;;;;;;;2.02;66.73;101118.92;107341;1251;72844;-71
2022/03/08 08:55:12;;;;;;;24.10;15.60;;;;;;;2.08;66.27;101114.42;107335;1250;69380;-72
2022/03/08 08:57:41;;;;;;;27.10;16.20;;;;;;;2.24;66.41;101118.41;107258;1251;70530;-73
2022/03/08 09:00:12;;;;;;;20.80;14.00;;;;;;;2.44;65.85;101116.41;107128;1251;72491;-73
2022/03/08 09:02:43;;;;;;;22.30;13.20;;;;;;;2.50;65.29;101119.30;107235;1251;59756;-72
2022/03/08 09:05:14;;;;;;;21.60;13.40;;;;;;;2.65;64.69;101120.88;107212;1251;61663;-76
2022/03/08 09:07:43;;;;;;;20.00;13.50;;;;;;;2.59;63.85;101119.50;107249;1252;74790;-75
2022/03/08 09:10:13;;;;;;;21.30;12.20;;;;;;;2.48;64.38;101118.70;107281;1251;71277;-75
2022/03/08 09:12:43;;;;;;;22.70;14.50;;;;;;;2.41;64.14;101124.56;107194;1251;68743;-75
2022/03/08 09:15:12;;;;;;;20.00;11.00;;;;;;;2.28;64.74;101122.23;107145;1250;71141;-74
2022/03/08 09:17:41;;;;;;;23.30;15.40;;;;;;;2.25;64.81;101122.33;107036;1253;60391;-73
2022/03/08 09:20:12;;;;;;;23.70;13.80;;;;;;;2.11;65.03;101124.83;107311;1251;59445;-74
2022/03/08 09:22:44;;;;;;;22.90;12.70;;;;;;;2.07;64.93;101129.40;107193;1251;72813;-74
2022/03/08 09:25:13;;;;;;;18.00;11.70;;;;;;;2.03;64.94;101120.96;107260;1251;70426;-75
2022/03/08 09:27:42;;;;;;;20.70;13.00;;;;;;;2.01;64.91;101127.70;107219;1250;68221;-75
2022/03/08 09:30:13;;;;;;;20.70;13.70;;;;;;;2.01;65.17;101126.35;107046;1253;72020;-74
2022/03/08 09:32:42;;;;;;;18.80;13.20;;;;;;;2.07;64.71;101120.13;107306;1251;60253;-75
2022/03/08 09:35:11;;;;;;;24.40;15.20;;;;;;;2.07;64.63;101123.74;107345;1251;61648;-75
2022/03/08 09:37:39;;;;;;;12.00;8.70;;;;;;;2.06;64.59;101124.11;107407;1251;74471;-73
2022/03/08 09:40:10;;;;;;;22.30;13.70;;;;;;;2.14;64.39;101120.42;107440;1251;71951;-74
2022/03/08 09:42:39;;;;;;;19.00;11.20;;;;;;;2.27;64.41;101113.67;107420;1250;68655;-76
2022/03/08 09:45:08;;;;;;;20.30;13.10;;;;;;;2.51;63.70;101114.80;107347;1251;73265;-74
2022/03/08 09:47:38;;;;;;;16.20;9.80;;;;;;;2.61;63.03;101117.20;107487;1251;60979;-76
2022/03/08 09:50:11;;;;;;;14.10;9.10;;;;;;;2.76;62.23;101116.19;107572;1251;59616;-75
2022/03/08 09:52:45;;;;;;;13.30;8.20;;;;;;;2.78;61.94;101117.52;107308;1251;72840;-76
2022/03/08 09:55:17;;;;;;;21.10;12.60;;;;;;;2.67;62.43;101117.87;107325;1251;72357;-79
2022/03/08 09:57:49;;;;;;;21.60;13.00;;;;;;;2.70;62.46;101115.02;107076;1251;69070;-75
2022/03/08 10:00:19;;;;;;;19.50;12.30;;;;;;;2.75;62.17;101116.93;107181;1251;73124;-75
2022/03/08 10:02:54;;;;;;;18.70;11.90;;;;;;;2.62;61.20;101090.72;107282;1251;60079;-75
2022/03/08 10:05:43;;;;;;;21.70;13.00;;;;;;;2.75;61.77;101112.96;107107;1251;61458;-75
2022/03/08 10:08:21;;;;;;;17.70;11.20;;;;;;;2.80;61.61;101108.67;107286;1250;73006;-75
2022/03/08 10:11:03;;;;;;;21.70;13.20;;;;;;;2.71;61.12;101108.10;107336;1251;71823;-75
2022/03/08 10:13:50;;;;;;;19.30;12.50;;;;;;;2.92;61.18;101104.65;107184;1251;68377;-75
2022/03/08 10:16:34;;;;;;;16.70;9.80;;;;;;;3.03;61.30;101107.55;107251;1250;72569;-74
2022/03/08 10:19:08;;;;;;;16.90;12.00;;;;;;;3.04;60.54;101100.27;107165;1251;61258;-74
2022/03/08 10:21:43;;;;;;;18.70;12.00;;;;;;;2.92;60.29;101104.84;106930;1253;60114;-75
2022/03/08 10:24:26;;;;;;;20.60;13.10;;;;;;;2.96;60.94;101096.63;107163;1251;70692;-74
2022/03/08 10:27:02;;;;;;;14.90;10.10;;;;;;;3.02;60.93;101096.41;107240;1251;70248;-74
2022/03/08 10:29:36;;;;;;;18.80;12.00;;;;;;;2.99;60.78;101093.08;107216;1251;68657;-76
2022/03/08 10:32:16;;;;;;;17.80;12.30;;;;;;;3.06;60.70;101092.11;107363;1250;72479;-76
2022/03/08 10:34:54;;;;;;;18.90;11.50;;;;;;;3.13;60.75;101092.91;107345;1251;60556;-75
2022/03/08 10:37:24;;;;;;;16.80;10.50;;;;;;;3.05;60.52;101091.98;107061;1251;60631;-73
2022/03/08 10:39:57;;;;;;;16.90;11.60;;;;;;;3.00;59.93;101084.60;107450;1251;75043;-77
2022/03/08 10:42:32;;;;;;;15.70;10.30;;;;;;;2.94;60.26;101088.08;107435;1251;73136;-76
2022/03/08 10:45:13;;;;;;;14.00;10.30;;;;;;;2.87;60.71;101083.65;107275;1250;70559;-74
2022/03/08 10:47:44;;;;;;;14.40;8.70;;;;;;;3.01;60.39;101084.37;107284;1249;71178;-74
2022/03/08 10:50:16;;;;;;;12.00;8.00;;;;;;;3.09;59.59;101080.16;107569;1250;59662;-74
2022/03/08 10:52:49;;;;;;;12.80;7.80;;;;;;;3.06;58.72;101083.85;107569;1250;59649;-74
2022/03/08 10:55:25;;;;;;;11.30;7.50;;;;;;;3.12;58.91;101080.39;107423;1251;74452;-78
2022/03/08 10:58:10;;;;;;;10.70;6.50;;;;;;;3.04;58.60;101077.06;107084;1251;71898;-76
2022/03/08 11:00:44;;;;;;;8.80;5.90;;;;;;;3.17;58.41;101077.09;107086;1252;69208;-76
2022/03/08 11:03:20;;;;;;;11.00;7.10;;;;;;;3.07;57.73;101075.75;107213;1250;71173;-78
2022/03/08 11:05:56;;;;;;;10.20;6.40;;;;;;;3.26;58.05;101060.77;107126;1251;59680;-77
2022/03/08 11:08:27;;;;;;;10.90;6.80;;;;;;;3.40;57.80;101061.96;107257;1251;60113;-77
2022/03/08 11:10:57;;;;;;;12.80;7.30;;;;;;;3.44;57.24;101059.93;107299;1251;73457;-77
2022/03/08 11:13:26;;;;;;;10.00;7.20;;;;;;;3.46;57.27;101055.41;107149;1251;72186;-76
2022/03/08 11:15:55;;;;;;;10.00;7.10;;;;;;;3.41;56.75;101053.69;107402;1250;69446;-77
2022/03/08 11:18:28;;;;;;;10.30;6.70;;;;;;;3.38;57.13;101051.73;107187;1251;73869;-78